Decoded Metar for EPWR (WROCLAW in POLAND) (IATA:WRO) | Meteo·Mobile Aviation Weather
aviador You're here:

EPWR Decoded Metar

WROCLAW in POLAND
Report Time2018-12-14 13:00:00
UTC Time2018-12-14 13:21:10
Flight Rules vfr VFR
Wind100° at 09 kt
W.Decomp.*RWY 11: 8.8 kt HW 2 kt LCW
W.Rank100° ranks 20
Current wind is above 100° avg. (5.7)
Visibility9999 m
Phenomena:N/A
Clouds:Few 013 Hf
Broken 033 Hf
Expected CloudBase > 1,200 ft AGL from Temp-Dew spread
Ceiling3,300 ft
Temp00°C (ISA -14)
Dew Point-3°C (80% RH)
AAT-5.6°C
QNH1025 hPa
Density Alt-1,677 ft
Elevation397 ft
Report Wrong Elevation
Raw Report
EPWR 141300Z 10009KT 9999 FEW013 BKN033 00/M03 Q1025=

Extra information for EPWR:More info

Metar Taf Metar & Taf Last 4 Metars F.Rules Stats Wind Profile Meteogram Temp Stats Airport Information Weather charts Add Link Nearby VenuesMetar ALERT Operation Metar Decoded Social comments